createdAt,value
2023-03-16T00:02:17.070Z,61.10
2023-03-16T00:04:47.396Z,61.10
2023-03-16T00:07:15.247Z,61.20
2023-03-16T00:09:42.610Z,61.30
2023-03-16T00:12:17.452Z,61.30
2023-03-16T00:14:46.976Z,61.40
2023-03-16T00:17:19.451Z,61.40
2023-03-16T00:19:54.893Z,61.60
2023-03-16T00:22:27.819Z,61.90
2023-03-16T00:24:58.467Z,61.70
2023-03-16T00:27:26.435Z,61.70
2023-03-16T00:29:57.035Z,61.80
2023-03-16T00:32:29.408Z,61.90
2023-03-16T00:34:56.502Z,61.90
2023-03-16T00:37:24.776Z,62.00
2023-03-16T00:39:52.371Z,62.10
2023-03-16T00:42:20.574Z,62.10
2023-03-16T00:44:47.606Z,62.30
2023-03-16T00:47:14.853Z,62.30
2023-03-16T00:49:44.946Z,62.30
2023-03-16T00:52:16.164Z,62.40
2023-03-16T00:54:49.947Z,62.50
2023-03-16T00:57:18.930Z,62.50
2023-03-16T00:59:46.520Z,62.70
2023-03-16T01:02:14.220Z,62.70
2023-03-16T01:04:41.409Z,62.90
2023-03-16T01:07:12.217Z,62.80
2023-03-16T01:09:40.190Z,63.00
2023-03-16T01:12:09.342Z,62.90
2023-03-16T01:14:36.692Z,63.00
2023-03-16T01:17:06.250Z,63.10
2023-03-16T01:19:35.698Z,63.10
2023-03-16T01:22:04.319Z,63.10
2023-03-16T01:24:31.168Z,63.10
2023-03-16T01:26:58.198Z,63.20
2023-03-16T01:29:25.162Z,63.20
2023-03-16T01:31:52.217Z,63.20
2023-03-16T01:34:19.292Z,63.20
2023-03-16T01:36:50.242Z,63.30
2023-03-16T01:39:17.322Z,63.30
2023-03-16T01:41:47.811Z,63.30
2023-03-16T01:44:18.308Z,63.30
2023-03-16T01:46:48.528Z,63.40
2023-03-16T01:49:29.080Z,63.40
2023-03-16T01:51:58.685Z,63.40
2023-03-16T01:54:31.422Z,63.40
2023-03-16T01:57:16.687Z,63.40
2023-03-16T02:00:10.978Z,63.40
2023-03-16T02:02:43.812Z,63.60
2023-03-16T02:05:45.312Z,63.60
2023-03-16T02:08:12.522Z,63.60
2023-03-16T02:10:40.963Z,63.70
2023-03-16T02:13:11.233Z,63.70
2023-03-16T02:15:38.652Z,63.70
2023-03-16T02:18:07.734Z,63.70
2023-03-16T02:20:55.485Z,63.80
2023-03-16T02:23:25.132Z,63.90
2023-03-16T02:26:10.291Z,64.00
2023-03-16T02:28:48.258Z,64.20
2023-03-16T02:31:18.498Z,64.10
2023-03-16T02:33:47.725Z,64.40
2023-03-16T02:36:15.389Z,64.50
2023-03-16T02:38:45.372Z,64.50
2023-03-16T02:41:15.382Z,64.60
2023-03-16T02:43:48.036Z,64.80
2023-03-16T02:46:15.431Z,64.90
2023-03-16T02:48:55.632Z,65.00
2023-03-16T02:51:22.460Z,65.20
2023-03-16T02:53:49.157Z,65.20
2023-03-16T02:56:18.709Z,65.10
2023-03-16T02:58:45.411Z,65.20
2023-03-16T03:01:18.571Z,65.50
2023-03-16T03:03:45.547Z,65.30
2023-03-16T03:06:12.446Z,65.40
2023-03-16T03:08:39.457Z,65.40
2023-03-16T03:11:06.221Z,65.60
2023-03-16T03:13:33.175Z,65.60
2023-03-16T03:16:00.147Z,65.70
2023-03-16T03:18:27.070Z,65.70
2023-03-16T03:20:56.817Z,65.80
2023-03-16T03:23:23.722Z,65.80
2023-03-16T03:25:51.688Z,65.80
2023-03-16T03:28:20.580Z,66.00
2023-03-16T03:30:49.272Z,65.90
2023-03-16T03:33:18.711Z,66.00
2023-03-16T03:35:45.590Z,66.00
2023-03-16T03:38:12.356Z,66.90
2023-03-16T03:40:39.096Z,66.10
2023-03-16T03:43:06.394Z,66.30
2023-03-16T03:45:33.279Z,66.40
2023-03-16T03:48:00.162Z,66.40
2023-03-16T03:50:27.164Z,66.40
2023-03-16T03:52:54.066Z,66.50
2023-03-16T03:55:23.524Z,66.50
2023-03-16T03:57:50.987Z,66.60
2023-03-16T04:00:20.966Z,66.70
2023-03-16T04:02:48.324Z,66.70
2023-03-16T04:05:15.159Z,66.80
2023-03-16T04:07:41.938Z,67.10
2023-03-16T04:10:09.305Z,67.00
2023-03-16T04:12:36.008Z,67.00
2023-03-16T04:15:03.847Z,67.00
2023-03-16T04:17:30.592Z,67.10
2023-03-16T04:19:57.457Z,67.10
2023-03-16T04:22:24.492Z,67.20
2023-03-16T04:24:52.315Z,67.20
2023-03-16T04:27:19.043Z,67.30
2023-03-16T04:29:45.732Z,67.20
2023-03-16T04:32:12.820Z,67.20
2023-03-16T04:34:41.757Z,67.30
2023-03-16T04:37:11.030Z,67.30
2023-03-16T04:39:38.376Z,67.40
2023-03-16T04:42:06.281Z,67.40
2023-03-16T04:44:32.963Z,67.40
2023-03-16T04:46:59.790Z,67.50
2023-03-16T04:49:26.578Z,67.50
2023-03-16T04:51:53.268Z,67.50
2023-03-16T04:54:20.045Z,67.40
2023-03-16T04:56:46.732Z,67.50
2023-03-16T04:59:13.517Z,67.50
2023-03-16T05:01:40.271Z,67.50
2023-03-16T05:04:07.040Z,67.70
2023-03-16T05:06:33.778Z,67.60
2023-03-16T05:09:01.055Z,67.70
2023-03-16T05:11:27.918Z,67.70
2023-03-16T05:13:54.614Z,67.80
2023-03-16T05:16:21.674Z,67.80
2023-03-16T05:18:52.934Z,67.80
2023-03-16T05:21:20.171Z,67.90
2023-03-16T05:23:46.940Z,68.00
2023-03-16T05:26:13.699Z,67.90
2023-03-16T05:28:43.140Z,68.00
2023-03-16T05:31:10.262Z,68.10
2023-03-16T05:33:37.568Z,68.10
2023-03-16T05:36:05.063Z,68.10
2023-03-16T05:38:32.149Z,68.20
2023-03-16T05:41:03.869Z,68.20
2023-03-16T05:43:32.509Z,68.30
2023-03-16T05:45:59.219Z,68.30
2023-03-16T05:48:25.945Z,68.30
2023-03-16T05:50:53.599Z,68.30
2023-03-16T05:53:20.963Z,68.50
2023-03-16T05:55:53.739Z,68.50
2023-03-16T05:58:23.546Z,68.50
2023-03-16T06:00:50.454Z,68.60
2023-03-16T06:03:17.613Z,68.90
2023-03-16T06:05:44.590Z,68.80
2023-03-16T06:08:11.472Z,69.00
2023-03-16T06:10:38.268Z,68.80
2023-03-16T06:13:05.199Z,69.30
2023-03-16T06:15:31.877Z,69.20
2023-03-16T06:17:58.847Z,69.30
2023-03-16T06:20:25.648Z,69.20
2023-03-16T06:22:53.103Z,69.20
2023-03-16T06:25:19.911Z,69.30
2023-03-16T06:27:46.787Z,69.20
2023-03-16T06:30:14.150Z,69.20
2023-03-16T06:32:45.320Z,69.20
2023-03-16T06:35:13.041Z,69.30
2023-03-16T06:37:39.829Z,69.30
2023-03-16T06:40:07.393Z,69.30
2023-03-16T06:42:34.216Z,69.50
2023-03-16T06:45:04.506Z,69.50
2023-03-16T06:47:31.858Z,69.70
2023-03-16T06:49:59.196Z,69.50
2023-03-16T06:52:25.936Z,69.50
2023-03-16T06:54:52.631Z,69.70
2023-03-16T06:57:19.607Z,69.70
2023-03-16T06:59:46.402Z,69.60
2023-03-16T07:02:14.562Z,70.00
2023-03-16T07:04:42.070Z,70.20
2023-03-16T07:07:09.638Z,70.00
2023-03-16T07:09:39.154Z,70.00
2023-03-16T07:12:10.297Z,70.00
2023-03-16T07:14:37.207Z,70.50
2023-03-16T07:17:05.097Z,70.20
2023-03-16T07:19:31.946Z,70.10
2023-03-16T07:22:02.861Z,70.20
2023-03-16T07:24:33.124Z,70.50
2023-03-16T07:27:01.255Z,70.40
2023-03-16T07:29:28.574Z,70.40
2023-03-16T07:31:55.735Z,70.30
2023-03-16T07:34:22.599Z,71.30
2023-03-16T07:36:49.646Z,70.70
2023-03-16T07:39:17.730Z,71.70
2023-03-16T07:41:44.662Z,70.80
2023-03-16T07:44:12.047Z,70.70
2023-03-16T07:46:38.734Z,70.80
2023-03-16T07:49:05.528Z,70.60
2023-03-16T07:51:32.235Z,70.40
2023-03-16T07:53:58.991Z,70.70
2023-03-16T07:56:27.243Z,70.80
2023-03-16T07:58:56.406Z,71.00
2023-03-16T08:01:23.843Z,70.90
2023-03-16T08:03:50.581Z,70.70
2023-03-16T08:06:17.398Z,70.70
2023-03-16T08:08:44.235Z,71.00
2023-03-16T08:11:13.591Z,70.90
2023-03-16T08:13:43.862Z,70.60
2023-03-16T08:16:13.237Z,70.60
2023-03-16T08:18:39.993Z,70.50
2023-03-16T08:21:06.724Z,70.50
2023-03-16T08:23:33.983Z,70.50
2023-03-16T08:26:01.175Z,70.30
2023-03-16T08:28:28.115Z,70.20
2023-03-16T08:30:55.672Z,70.20
2023-03-16T08:33:23.396Z,70.10
2023-03-16T08:35:50.886Z,70.10
2023-03-16T08:38:19.182Z,70.10
2023-03-16T08:40:51.011Z,70.10
2023-03-16T08:43:19.162Z,69.90
2023-03-16T08:45:46.724Z,69.90
2023-03-16T08:48:14.347Z,69.80
2023-03-16T08:50:43.316Z,69.80
2023-03-16T08:53:14.228Z,69.60
2023-03-16T08:55:41.791Z,69.60
2023-03-16T08:58:10.530Z,69.50
2023-03-16T09:00:37.830Z,69.50
2023-03-16T09:03:06.632Z,69.30
2023-03-16T09:05:36.782Z,69.10
2023-03-16T09:08:04.786Z,69.10
2023-03-16T09:10:33.125Z,69.00
2023-03-16T09:12:59.875Z,68.90
2023-03-16T09:15:27.008Z,69.00
2023-03-16T09:17:54.407Z,68.90
2023-03-16T09:20:26.377Z,68.70
2023-03-16T09:23:01.777Z,68.70
2023-03-16T09:25:28.908Z,68.70
2023-03-16T09:27:55.815Z,68.50
2023-03-16T09:30:22.600Z,68.50
2023-03-16T09:32:50.488Z,68.20
2023-03-16T09:35:17.484Z,68.60
2023-03-16T09:38:03.943Z,68.10
2023-03-16T09:40:32.249Z,67.40
2023-03-16T09:43:20.110Z,67.20
2023-03-16T09:46:05.584Z,67.20
2023-03-16T09:48:36.791Z,67.20
2023-03-16T09:51:14.513Z,66.80
2023-03-16T09:53:42.053Z,65.70
2023-03-16T09:56:20.279Z,65.70
2023-03-16T09:58:47.118Z,65.50
2023-03-16T10:02:03.756Z,65.30
2023-03-16T10:05:06.551Z,65.30
2023-03-16T10:08:12.701Z,65.10
2023-03-16T10:10:57.742Z,65.10
2023-03-16T10:13:48.335Z,64.60
2023-03-16T10:16:21.224Z,64.30
2023-03-16T10:18:58.734Z,64.30
2023-03-16T10:21:25.567Z,64.00
2023-03-16T10:23:54.233Z,63.70
2023-03-16T10:26:31.381Z,63.30
2023-03-16T10:29:01.146Z,62.60
2023-03-16T10:31:28.408Z,62.00
2023-03-16T10:34:05.141Z,62.60
2023-03-16T10:36:35.168Z,62.50
2023-03-16T10:39:06.184Z,62.40
2023-03-16T10:41:38.739Z,62.10
2023-03-16T10:44:14.731Z,61.60
2023-03-16T10:46:51.102Z,61.20
2023-03-16T10:49:43.819Z,61.00
2023-03-16T10:52:45.696Z,60.70
2023-03-16T10:55:32.651Z,60.70
2023-03-16T10:57:59.714Z,59.20
2023-03-16T11:00:36.205Z,59.90
2023-03-16T11:03:22.862Z,59.90
2023-03-16T11:06:18.069Z,59.80
2023-03-16T11:08:45.394Z,59.30
2023-03-16T11:11:32.651Z,59.30
2023-03-16T11:14:05.033Z,59.00
2023-03-16T11:16:46.962Z,59.20
2023-03-16T11:19:23.378Z,59.40
2023-03-16T11:21:57.133Z,58.70
2023-03-16T11:24:32.958Z,59.00
2023-03-16T11:27:04.580Z,58.50
2023-03-16T11:29:49.016Z,58.20
2023-03-16T11:32:20.806Z,58.40
2023-03-16T11:34:51.252Z,58.40
2023-03-16T11:37:17.884Z,58.10
2023-03-16T11:39:56.984Z,57.70
2023-03-16T11:43:08.562Z,57.80
2023-03-16T11:45:59.285Z,58.00
2023-03-16T11:48:47.818Z,57.80
2023-03-16T11:51:42.343Z,57.70
2023-03-16T11:54:26.914Z,56.90
2023-03-16T11:57:17.461Z,56.70
2023-03-16T12:00:19.444Z,56.00
2023-03-16T12:03:19.931Z,56.10
2023-03-16T12:06:23.371Z,55.90
2023-03-16T12:09:08.427Z,55.60
2023-03-16T12:11:45.180Z,56.20
2023-03-16T12:14:37.516Z,56.10
2023-03-16T12:17:08.487Z,55.20
2023-03-16T12:20:04.081Z,55.80
2023-03-16T12:22:39.845Z,55.60
2023-03-16T12:25:25.214Z,55.30
2023-03-16T12:27:56.979Z,54.70
2023-03-16T12:30:42.470Z,55.00
2023-03-16T12:33:45.370Z,54.90
2023-03-16T12:36:51.756Z,54.20
2023-03-16T12:39:53.469Z,54.80
2023-03-16T12:42:48.169Z,54.40
2023-03-16T12:45:31.725Z,54.30
2023-03-16T12:48:27.560Z,54.00
2023-03-16T12:51:01.289Z,54.50
2023-03-16T12:53:40.177Z,54.40
2023-03-16T12:56:10.110Z,53.70
2023-03-16T12:58:41.868Z,54.00
2023-03-16T13:01:11.581Z,54.00
2023-03-16T13:03:39.299Z,53.20
2023-03-16T13:06:06.468Z,53.20
2023-03-16T13:08:47.364Z,52.80
2023-03-16T13:11:17.875Z,52.80
2023-03-16T13:13:59.412Z,52.90
2023-03-16T13:16:29.715Z,52.20
2023-03-16T13:18:56.931Z,52.20
2023-03-16T13:21:37.161Z,53.10
2023-03-16T13:24:18.873Z,51.70
2023-03-16T13:27:26.728Z,51.90
2023-03-16T13:29:56.092Z,51.60
2023-03-16T13:32:24.416Z,51.40
2023-03-16T13:34:58.688Z,51.60
2023-03-16T13:37:29.459Z,50.70
2023-03-16T13:40:01.858Z,50.60
2023-03-16T13:42:33.642Z,50.50
2023-03-16T13:45:13.405Z,50.60
2023-03-16T13:47:43.433Z,50.80
2023-03-16T13:50:15.120Z,51.20
2023-03-16T13:52:47.902Z,51.10
2023-03-16T13:55:19.520Z,50.70
2023-03-16T13:57:51.787Z,50.20
2023-03-16T14:00:22.555Z,50.10
2023-03-16T14:02:57.631Z,50.60
2023-03-16T14:05:33.382Z,51.00
2023-03-16T14:08:04.916Z,50.70
2023-03-16T14:10:36.971Z,50.40
2023-03-16T14:13:25.534Z,50.00
2023-03-16T14:16:02.229Z,50.20
2023-03-16T14:18:48.670Z,50.40
2023-03-16T14:21:21.118Z,50.10
2023-03-16T14:23:53.039Z,49.90
2023-03-16T14:26:24.673Z,50.10
2023-03-16T14:28:57.338Z,49.80
2023-03-16T14:31:34.212Z,49.60
2023-03-16T14:34:04.765Z,49.40
2023-03-16T14:36:39.086Z,49.40
2023-03-16T14:39:14.116Z,49.10
2023-03-16T14:41:41.152Z,49.70
2023-03-16T14:44:21.132Z,49.70
2023-03-16T14:46:48.129Z,49.40
2023-03-16T14:49:31.888Z,49.30
2023-03-16T14:52:33.696Z,49.40
2023-03-16T14:55:05.033Z,49.90
2023-03-16T14:57:31.847Z,49.80
2023-03-16T14:59:58.650Z,50.00
2023-03-16T15:02:33.383Z,49.80
2023-03-16T15:05:01.421Z,49.20
2023-03-16T15:07:35.714Z,49.70
2023-03-16T15:10:33.498Z,48.90
2023-03-16T15:13:16.943Z,49.50
2023-03-16T15:15:43.974Z,49.70
2023-03-16T15:18:10.854Z,49.80
2023-03-16T15:20:43.709Z,49.00
2023-03-16T15:23:16.521Z,49.00
2023-03-16T15:25:45.876Z,49.10
2023-03-16T15:28:16.009Z,49.80
2023-03-16T15:30:44.718Z,49.20
2023-03-16T15:33:15.801Z,49.00
2023-03-16T15:35:46.820Z,49.40
2023-03-16T15:38:33.494Z,49.30
2023-03-16T15:41:01.089Z,49.00
2023-03-16T15:43:30.057Z,49.20
2023-03-16T15:45:58.832Z,48.80
2023-03-16T15:48:28.643Z,48.10
2023-03-16T15:50:58.257Z,48.00
2023-03-16T15:53:41.336Z,48.40
2023-03-16T15:56:21.610Z,48.00
2023-03-16T15:58:52.238Z,48.20
2023-03-16T16:01:27.131Z,48.10
2023-03-16T16:03:56.005Z,49.00
2023-03-16T16:06:27.472Z,48.20
2023-03-16T16:08:57.436Z,48.50
2023-03-16T16:11:26.500Z,48.30
2023-03-16T16:13:55.842Z,48.30
2023-03-16T16:16:23.588Z,48.30
2023-03-16T16:18:50.886Z,48.50
2023-03-16T16:21:23.218Z,48.70
2023-03-16T16:23:54.661Z,48.70
2023-03-16T16:26:27.930Z,48.60
2023-03-16T16:29:03.234Z,48.70
2023-03-16T16:31:36.376Z,48.60
2023-03-16T16:34:27.191Z,48.50
2023-03-16T16:36:56.178Z,48.60
2023-03-16T16:39:23.749Z,48.60
2023-03-16T16:41:54.490Z,48.60
2023-03-16T16:44:27.669Z,48.50
2023-03-16T16:46:54.949Z,48.60
2023-03-16T16:49:31.045Z,48.60
2023-03-16T16:51:58.824Z,48.60
2023-03-16T16:54:28.850Z,48.70
2023-03-16T16:56:59.798Z,48.60
2023-03-16T16:59:36.889Z,48.70
2023-03-16T17:02:27.717Z,48.50
2023-03-16T17:04:54.758Z,48.50
2023-03-16T17:07:21.671Z,48.80
2023-03-16T17:09:48.588Z,48.70
2023-03-16T17:12:22.350Z,48.70
2023-03-16T17:14:50.534Z,48.60
2023-03-16T17:17:18.680Z,48.80
2023-03-16T17:19:46.963Z,48.80
2023-03-16T17:22:22.807Z,48.80
2023-03-16T17:24:49.661Z,48.90
2023-03-16T17:27:23.323Z,48.80
2023-03-16T17:29:52.168Z,48.70
2023-03-16T17:32:22.766Z,48.90
2023-03-16T17:34:50.898Z,48.90
2023-03-16T17:37:19.847Z,48.80
2023-03-16T17:39:46.667Z,49.00
2023-03-16T17:42:17.958Z,49.00
2023-03-16T17:44:47.683Z,49.00
2023-03-16T17:47:21.449Z,48.90
2023-03-16T17:49:51.044Z,49.10
2023-03-16T17:52:20.644Z,49.10
2023-03-16T17:54:52.060Z,49.10
2023-03-16T17:57:24.365Z,49.10
2023-03-16T17:59:52.133Z,49.10
2023-03-16T18:03:03.136Z,49.20
2023-03-16T18:05:32.771Z,49.20
2023-03-16T18:08:07.571Z,49.40
2023-03-16T18:10:34.285Z,49.40
2023-03-16T18:13:08.918Z,49.40
2023-03-16T18:15:39.364Z,49.30
2023-03-16T18:18:09.899Z,49.30
2023-03-16T18:20:37.660Z,49.50
2023-03-16T18:23:18.906Z,49.60
2023-03-16T18:25:46.658Z,49.70
2023-03-16T18:28:13.977Z,49.90
2023-03-16T18:30:43.972Z,50.10
2023-03-16T18:33:23.508Z,50.20
2023-03-16T18:35:52.567Z,50.40
2023-03-16T18:38:37.657Z,50.70
2023-03-16T18:41:30.424Z,50.80
2023-03-16T18:43:58.705Z,51.00
2023-03-16T18:46:29.035Z,51.10
2023-03-16T18:48:58.941Z,51.30
2023-03-16T18:51:26.542Z,51.40
2023-03-16T18:53:53.503Z,51.60
2023-03-16T18:56:23.978Z,51.70
2023-03-16T18:58:52.558Z,51.90
2023-03-16T19:01:25.033Z,52.00
2023-03-16T19:03:53.206Z,52.20
2023-03-16T19:06:33.018Z,52.80
2023-03-16T19:09:13.250Z,52.30
2023-03-16T19:11:43.531Z,52.40
2023-03-16T19:14:20.291Z,52.40
2023-03-16T19:16:47.500Z,52.50
2023-03-16T19:19:15.249Z,52.50
2023-03-16T19:21:45.107Z,52.50
2023-03-16T19:24:21.486Z,52.70
2023-03-16T19:26:48.812Z,52.70
2023-03-16T19:29:15.967Z,52.70
2023-03-16T19:31:43.255Z,52.80
2023-03-16T19:34:19.460Z,53.10
2023-03-16T19:36:46.742Z,53.00
2023-03-16T19:39:15.523Z,52.90
2023-03-16T19:41:43.552Z,53.60
2023-03-16T19:44:20.062Z,53.00
2023-03-16T19:46:47.320Z,53.00
2023-03-16T19:49:20.357Z,53.10
2023-03-16T19:51:48.399Z,53.00
2023-03-16T19:54:33.518Z,53.10
2023-03-16T19:57:04.554Z,53.20
2023-03-16T19:59:33.613Z,53.20
2023-03-16T20:02:13.631Z,53.20
2023-03-16T20:04:40.570Z,53.30
2023-03-16T20:07:16.494Z,53.40
2023-03-16T20:10:00.723Z,53.50
2023-03-16T20:12:30.300Z,53.60
2023-03-16T20:14:57.968Z,53.50
2023-03-16T20:17:28.281Z,53.60
2023-03-16T20:19:57.172Z,53.60
2023-03-16T20:22:28.753Z,53.70
2023-03-16T20:24:55.904Z,53.70
2023-03-16T20:27:24.235Z,53.80
2023-03-16T20:29:54.373Z,53.90
2023-03-16T20:32:32.589Z,53.90
2023-03-16T20:34:59.528Z,53.80
2023-03-16T20:37:29.150Z,54.00
2023-03-16T20:39:58.214Z,54.00
2023-03-16T20:42:33.441Z,54.00
2023-03-16T20:45:01.378Z,54.00
2023-03-16T20:47:28.071Z,54.20
2023-03-16T20:49:57.387Z,54.10
2023-03-16T20:52:30.628Z,54.20
2023-03-16T20:54:58.019Z,54.20
2023-03-16T20:57:27.189Z,54.20
2023-03-16T20:59:55.537Z,54.30
2023-03-16T21:02:32.096Z,54.20
2023-03-16T21:05:01.693Z,54.30
2023-03-16T21:07:31.012Z,54.40
2023-03-16T21:09:58.020Z,54.50
2023-03-16T21:12:46.553Z,54.50
2023-03-16T21:15:33.707Z,54.50
2023-03-16T21:18:03.082Z,55.20
2023-03-16T21:20:32.315Z,54.60
2023-03-16T21:22:59.456Z,54.60
2023-03-16T21:25:30.878Z,54.70
2023-03-16T21:28:02.234Z,54.70
2023-03-16T21:30:32.484Z,54.70
2023-03-16T21:33:01.837Z,54.80
2023-03-16T21:35:33.361Z,54.80
2023-03-16T21:38:01.983Z,54.90
2023-03-16T21:40:29.022Z,55.60
2023-03-16T21:42:56.496Z,55.10
2023-03-16T21:45:23.233Z,55.20
2023-03-16T21:47:50.214Z,55.20
2023-03-16T21:50:24.901Z,55.30
2023-03-16T21:52:51.876Z,55.30
2023-03-16T21:55:25.843Z,55.30
2023-03-16T21:57:54.146Z,55.50
2023-03-16T22:00:29.841Z,55.40
2023-03-16T22:02:59.017Z,55.50
2023-03-16T22:05:31.376Z,56.30
2023-03-16T22:07:59.828Z,55.70
2023-03-16T22:10:29.718Z,55.60
2023-03-16T22:13:00.273Z,55.90
2023-03-16T22:15:27.679Z,55.90
2023-03-16T22:17:55.913Z,55.80
2023-03-16T22:20:27.086Z,55.90
2023-03-16T22:22:55.886Z,55.90
2023-03-16T22:25:25.524Z,55.90
2023-03-16T22:27:53.260Z,56.10
2023-03-16T22:30:27.454Z,56.00
2023-03-16T22:33:00.278Z,56.10
2023-03-16T22:35:36.900Z,56.30
2023-03-16T22:38:07.304Z,56.30
2023-03-16T22:40:37.274Z,56.30
2023-03-16T22:43:07.479Z,56.40
2023-03-16T22:45:34.925Z,56.50
2023-03-16T22:48:16.314Z,57.50
2023-03-16T22:50:43.246Z,56.50
2023-03-16T22:53:16.207Z,56.60
2023-03-16T22:55:43.077Z,56.70
2023-03-16T22:58:27.689Z,56.70
2023-03-16T23:00:55.116Z,56.70
2023-03-16T23:03:25.607Z,56.70
2023-03-16T23:05:52.801Z,56.70
2023-03-16T23:08:23.599Z,56.70
2023-03-16T23:10:53.643Z,56.80
2023-03-16T23:13:26.673Z,56.80
2023-03-16T23:15:55.736Z,56.90
2023-03-16T23:18:26.650Z,56.80
2023-03-16T23:20:59.399Z,56.90
2023-03-16T23:23:26.436Z,57.00
2023-03-16T23:25:53.185Z,56.90
2023-03-16T23:28:24.263Z,56.90
2023-03-16T23:30:53.124Z,57.00
2023-03-16T23:33:19.892Z,57.00
2023-03-16T23:35:47.098Z,57.10
2023-03-16T23:38:13.950Z,57.00
2023-03-16T23:40:42.179Z,57.00
2023-03-16T23:43:09.164Z,57.10
2023-03-16T23:45:42.645Z,57.20
2023-03-16T23:48:16.885Z,57.30
2023-03-16T23:50:44.909Z,57.40
2023-03-16T23:53:15.104Z,58.20
2023-03-16T23:55:43.551Z,58.20
2023-03-16T23:58:11.688Z,58.30
